createdAt,value
2019-01-17T00:02:39.536Z,99.60
2019-01-17T00:05:33.475Z,99.80
2019-01-17T00:08:33.135Z,99.90
2019-01-17T00:11:22.493Z,99.90
2019-01-17T00:14:32.782Z,99.60
2019-01-17T00:17:42.103Z,99.50
2019-01-17T00:20:52.046Z,99.80
2019-01-17T00:23:41.452Z,99.90
2019-01-17T00:26:36.232Z,99.80
2019-01-17T00:29:29.791Z,99.90
2019-01-17T00:32:30.645Z,99.90
2019-01-17T00:35:15.542Z,99.90
2019-01-17T00:38:25.981Z,99.90
2019-01-17T00:41:22.052Z,99.90
2019-01-17T00:44:17.616Z,99.90
2019-01-17T00:47:09.598Z,99.90
2019-01-17T00:50:09.647Z,99.90
2019-01-17T00:53:02.678Z,99.90
2019-01-17T00:55:41.161Z,99.90
2019-01-17T00:58:34.761Z,99.90
2019-01-17T01:01:16.636Z,99.90
2019-01-17T01:04:17.607Z,99.90
2019-01-17T01:07:21.826Z,99.90
2019-01-17T01:10:22.603Z,99.90
2019-01-17T01:13:18.896Z,99.90
2019-01-17T01:16:14.406Z,99.90
2019-01-17T01:19:26.104Z,99.90
2019-01-17T01:22:36.296Z,99.90
2019-01-17T01:25:31.556Z,99.90
2019-01-17T01:28:22.097Z,99.90
2019-01-17T01:31:10.947Z,99.90
2019-01-17T01:33:58.570Z,99.90
2019-01-17T01:36:54.166Z,99.90
2019-01-17T01:40:03.196Z,99.90
2019-01-17T01:42:53.343Z,99.90
2019-01-17T01:45:35.222Z,99.90
2019-01-17T01:48:29.018Z,99.90
2019-01-17T01:51:30.011Z,99.90
2019-01-17T01:54:05.163Z,99.90
2019-01-17T01:56:39.420Z,99.90
2019-01-17T01:59:13.601Z,99.90
2019-01-17T02:01:48.037Z,99.90
2019-01-17T02:04:22.353Z,99.90
2019-01-17T02:06:56.850Z,99.90
2019-01-17T02:09:30.668Z,99.90
2019-01-17T02:12:05.695Z,99.90
2019-01-17T02:14:39.956Z,99.90
2019-01-17T02:17:15.071Z,99.90
2019-01-17T02:19:49.687Z,99.90
2019-01-17T02:22:24.220Z,99.90
2019-01-17T02:24:59.293Z,99.90
2019-01-17T02:27:35.676Z,99.90
2019-01-17T02:30:10.878Z,99.90
2019-01-17T02:32:44.997Z,99.90
2019-01-17T02:35:18.845Z,99.90
2019-01-17T02:37:52.839Z,99.90
2019-01-17T02:40:27.745Z,99.90
2019-01-17T02:43:01.713Z,99.90
2019-01-17T02:45:36.623Z,99.90
2019-01-17T02:48:10.588Z,99.90
2019-01-17T02:50:47.075Z,99.90
2019-01-17T02:53:21.875Z,99.90
2019-01-17T02:55:55.864Z,99.90
2019-01-17T02:58:30.089Z,99.90
2019-01-17T03:01:04.832Z,99.90
2019-01-17T03:03:39.164Z,99.90
2019-01-17T03:06:13.237Z,99.90
2019-01-17T03:08:47.470Z,99.90
2019-01-17T03:11:22.030Z,99.90
2019-01-17T03:13:56.766Z,99.90
2019-01-17T03:16:31.207Z,99.90
2019-01-17T03:19:06.373Z,99.90
2019-01-17T03:21:40.320Z,99.90
2019-01-17T03:24:14.553Z,99.90
2019-01-17T03:26:48.487Z,99.90
2019-01-17T03:29:22.938Z,99.90
2019-01-17T03:31:57.018Z,99.90
2019-01-17T03:34:31.327Z,99.90
2019-01-17T03:37:05.418Z,99.90
2019-01-17T03:39:40.785Z,99.90
2019-01-17T03:42:14.701Z,99.90
2019-01-17T03:44:49.288Z,99.90
2019-01-17T03:47:24.556Z,99.90
2019-01-17T03:49:57.982Z,99.90
2019-01-17T03:52:32.557Z,99.90
2019-01-17T03:55:08.569Z,99.90
2019-01-17T03:57:45.545Z,99.90
2019-01-17T04:00:25.093Z,99.90
2019-01-17T04:03:00.161Z,99.90
2019-01-17T04:05:34.779Z,99.90
2019-01-17T04:08:08.796Z,99.90
2019-01-17T04:10:44.559Z,99.90
2019-01-17T04:13:19.130Z,99.90
2019-01-17T04:15:53.661Z,99.90
2019-01-17T04:18:28.117Z,99.90
2019-01-17T04:21:02.616Z,99.90
2019-01-17T04:23:36.982Z,99.90
2019-01-17T04:26:12.405Z,99.90
2019-01-17T04:28:46.208Z,99.90
2019-01-17T04:31:20.781Z,99.90
2019-01-17T04:33:55.258Z,99.90
2019-01-17T04:36:30.281Z,99.90
2019-01-17T04:39:06.509Z,99.90
2019-01-17T04:41:40.273Z,99.90
2019-01-17T04:44:14.939Z,99.90
2019-01-17T04:46:49.045Z,99.90
2019-01-17T04:49:23.454Z,99.90
2019-01-17T04:51:57.724Z,99.90
2019-01-17T04:54:32.612Z,99.90
2019-01-17T04:57:07.479Z,99.90
2019-01-17T04:59:42.823Z,99.90
2019-01-17T05:02:17.753Z,99.90
2019-01-17T05:04:52.239Z,99.90
2019-01-17T05:07:27.597Z,99.90
2019-01-17T05:10:01.348Z,99.90
2019-01-17T05:12:36.085Z,99.90
2019-01-17T05:15:10.381Z,99.90
2019-01-17T05:17:44.831Z,99.90
2019-01-17T05:20:19.991Z,99.90
2019-01-17T05:22:54.021Z,99.90
2019-01-17T05:25:27.608Z,99.90
2019-01-17T05:28:02.668Z,99.90
2019-01-17T05:30:38.286Z,99.90
2019-01-17T05:33:12.647Z,99.90
2019-01-17T05:35:47.262Z,99.90
2019-01-17T05:38:21.755Z,99.90
2019-01-17T05:40:56.789Z,99.90
2019-01-17T05:43:31.816Z,99.90
2019-01-17T05:46:06.636Z,99.90
2019-01-17T05:48:49.458Z,99.90
2019-01-17T05:51:24.245Z,99.90
2019-01-17T05:54:02.416Z,99.90
2019-01-17T05:56:39.748Z,99.90
2019-01-17T05:59:15.580Z,99.90
2019-01-17T06:01:51.759Z,99.90
2019-01-17T06:04:26.593Z,99.90
2019-01-17T06:07:02.048Z,99.90
2019-01-17T06:09:36.145Z,99.90
2019-01-17T06:12:10.489Z,99.90
2019-01-17T06:14:44.649Z,99.90
2019-01-17T06:17:19.938Z,99.90
2019-01-17T06:19:54.658Z,99.90
2019-01-17T06:22:27.110Z,99.90
2019-01-17T06:24:59.561Z,99.90
2019-01-17T06:27:33.032Z,99.90
2019-01-17T06:30:05.824Z,99.90
2019-01-17T06:32:38.940Z,99.90
2019-01-17T06:35:10.215Z,99.90
2019-01-17T06:37:42.313Z,99.90
2019-01-17T06:40:24.683Z,99.90
2019-01-17T06:42:55.713Z,99.90
2019-01-17T06:45:27.985Z,99.90
2019-01-17T06:47:59.086Z,99.90
2019-01-17T06:50:32.254Z,99.90
2019-01-17T06:53:02.827Z,99.90
2019-01-17T06:55:35.937Z,99.90
2019-01-17T06:58:06.661Z,99.90
2019-01-17T07:00:39.501Z,99.90
2019-01-17T07:03:11.090Z,99.90
2019-01-17T07:05:41.637Z,99.90
2019-01-17T07:08:12.171Z,99.90
2019-01-17T07:10:42.826Z,99.90
2019-01-17T07:13:13.482Z,99.90
2019-01-17T07:15:44.122Z,99.90
2019-01-17T07:18:14.770Z,99.40
2019-01-17T07:20:45.244Z,99.20
2019-01-17T07:23:15.758Z,99.30
2019-01-17T07:25:46.357Z,99.10
2019-01-17T07:28:16.970Z,99.10
2019-01-17T07:30:47.620Z,99.20
2019-01-17T07:33:18.288Z,99.50
2019-01-17T07:35:49.104Z,99.50
2019-01-17T07:38:19.636Z,99.60
2019-01-17T07:40:50.286Z,99.80
2019-01-17T07:43:20.838Z,99.90
2019-01-17T07:45:51.454Z,99.90
2019-01-17T07:48:22.026Z,99.90
2019-01-17T07:50:53.109Z,99.90
2019-01-17T07:53:24.024Z,99.80
2019-01-17T07:55:56.355Z,99.80
2019-01-17T07:58:28.216Z,99.70
2019-01-17T08:00:58.847Z,99.40
2019-01-17T08:03:30.772Z,99.40
2019-01-17T08:06:01.482Z,99.20
2019-01-17T08:08:32.080Z,99.10
2019-01-17T08:11:02.828Z,99.00
2019-01-17T08:13:33.563Z,99.10
2019-01-17T08:16:06.931Z,99.00
2019-01-17T08:18:37.670Z,98.80
2019-01-17T08:21:08.296Z,98.70
2019-01-17T08:23:39.849Z,98.80
2019-01-17T08:26:10.440Z,98.80
2019-01-17T08:28:41.124Z,99.00
2019-01-17T08:31:11.747Z,99.10
2019-01-17T08:33:42.259Z,99.00
2019-01-17T08:36:12.779Z,98.70
2019-01-17T08:38:43.427Z,98.80
2019-01-17T08:41:13.938Z,98.80
2019-01-17T08:43:44.655Z,98.50
2019-01-17T08:46:15.255Z,98.40
2019-01-17T08:48:48.065Z,97.90
2019-01-17T08:51:19.170Z,97.90
2019-01-17T08:53:50.817Z,98.10
2019-01-17T08:56:21.567Z,98.00
2019-01-17T08:58:53.210Z,97.90
2019-01-17T09:01:23.812Z,97.80
2019-01-17T09:03:54.418Z,97.90
2019-01-17T09:06:24.905Z,98.00
2019-01-17T09:08:55.499Z,98.00
2019-01-17T09:11:26.179Z,97.90
2019-01-17T09:13:56.682Z,97.80
2019-01-17T09:16:27.160Z,97.90
2019-01-17T09:18:57.830Z,98.00
2019-01-17T09:21:28.331Z,97.90
2019-01-17T09:23:59.584Z,98.10
2019-01-17T09:26:31.503Z,98.00
2019-01-17T09:29:03.735Z,98.20
2019-01-17T09:31:35.326Z,98.10
2019-01-17T09:34:06.022Z,98.10
2019-01-17T09:36:37.753Z,98.20
2019-01-17T09:39:09.892Z,98.00
2019-01-17T09:41:40.930Z,98.20
2019-01-17T09:44:11.486Z,98.50
2019-01-17T09:46:42.060Z,98.70
2019-01-17T09:49:12.622Z,99.30
2019-01-17T09:51:43.253Z,99.80
2019-01-17T09:54:13.870Z,99.90
2019-01-17T09:56:44.437Z,99.90
2019-01-17T09:59:15.427Z,99.90
2019-01-17T10:01:45.923Z,99.90
2019-01-17T10:04:16.402Z,99.90
2019-01-17T10:06:47.086Z,99.90
2019-01-17T10:09:17.732Z,99.90
2019-01-17T10:11:48.283Z,99.90
2019-01-17T10:14:18.801Z,99.90
2019-01-17T10:17:19.391Z,99.90
2019-01-17T10:20:18.068Z,99.90
2019-01-17T10:23:50.389Z,99.90
2019-01-17T10:26:58.348Z,99.90
2019-01-17T10:30:10.753Z,99.90
2019-01-17T10:33:00.027Z,99.90
2019-01-17T10:36:15.916Z,99.90
2019-01-17T10:39:35.625Z,99.90
2019-01-17T10:42:36.166Z,99.90
2019-01-17T10:45:45.797Z,99.90
2019-01-17T10:49:12.051Z,99.90
2019-01-17T10:52:07.251Z,99.90
2019-01-17T10:55:45.939Z,99.90
2019-01-17T10:59:00.004Z,99.90
2019-01-17T11:01:57.324Z,99.90
2019-01-17T11:04:53.740Z,99.90
2019-01-17T11:08:03.546Z,99.90
2019-01-17T11:10:59.632Z,99.90
2019-01-17T11:14:04.683Z,99.90
2019-01-17T11:17:20.595Z,99.90
2019-01-17T11:20:31.964Z,99.90
2019-01-17T11:23:46.684Z,99.90
2019-01-17T11:27:08.231Z,99.90
2019-01-17T11:29:49.707Z,99.90
2019-01-17T11:32:46.571Z,99.90
2019-01-17T11:35:57.696Z,99.90
2019-01-17T11:39:05.135Z,99.90
2019-01-17T11:41:53.444Z,99.90
2019-01-17T11:44:49.121Z,99.90
2019-01-17T11:47:38.571Z,99.90
2019-01-17T11:50:55.510Z,99.90
2019-01-17T11:54:09.233Z,99.90
2019-01-17T11:57:17.903Z,99.90
2019-01-17T12:00:15.813Z,99.90
2019-01-17T12:03:16.951Z,99.90
2019-01-17T12:05:48.474Z,99.90
2019-01-17T12:08:19.166Z,99.90
2019-01-17T12:10:51.856Z,99.90
2019-01-17T12:13:22.465Z,99.90
2019-01-17T12:15:52.996Z,99.90
2019-01-17T12:18:23.626Z,99.90
2019-01-17T12:20:54.091Z,99.90
2019-01-17T12:23:24.632Z,99.90
2019-01-17T12:25:56.301Z,99.90
2019-01-17T12:28:26.967Z,99.90
2019-01-17T12:30:57.562Z,99.90
2019-01-17T12:33:28.178Z,99.90
2019-01-17T12:35:58.668Z,99.90
2019-01-17T12:38:29.178Z,99.90
2019-01-17T12:40:59.719Z,99.90
2019-01-17T12:43:31.364Z,99.90
2019-01-17T12:46:01.942Z,99.90
2019-01-17T12:48:32.974Z,99.90
2019-01-17T12:51:03.491Z,99.90
2019-01-17T12:53:34.188Z,99.90
2019-01-17T12:56:06.560Z,99.90
2019-01-17T12:58:37.370Z,99.90
2019-01-17T13:01:08.157Z,99.90
2019-01-17T13:03:38.965Z,99.90
2019-01-17T13:06:09.486Z,99.90
2019-01-17T13:08:40.217Z,99.90
2019-01-17T13:11:10.850Z,99.90
2019-01-17T13:13:45.434Z,99.90
2019-01-17T13:16:16.184Z,99.90
2019-01-17T13:18:50.023Z,99.90
2019-01-17T13:21:20.559Z,99.90
2019-01-17T13:23:51.133Z,99.90
2019-01-17T13:26:23.329Z,99.90
2019-01-17T13:28:57.072Z,99.90
2019-01-17T13:31:27.738Z,99.90
2019-01-17T13:33:59.354Z,99.90
2019-01-17T13:36:29.908Z,99.90
2019-01-17T13:39:00.826Z,99.90
2019-01-17T13:41:34.164Z,99.90
2019-01-17T13:44:05.187Z,99.90
2019-01-17T13:46:35.798Z,99.90
2019-01-17T13:49:06.418Z,99.90
2019-01-17T13:51:36.977Z,99.90
2019-01-17T13:54:07.937Z,99.90
2019-01-17T13:56:38.811Z,99.90
2019-01-17T13:59:09.334Z,99.90
2019-01-17T14:01:39.937Z,99.90
2019-01-17T14:04:10.603Z,99.40
2019-01-17T14:06:41.135Z,99.90
2019-01-17T14:09:11.885Z,99.40
2019-01-17T14:11:42.311Z,99.10
2019-01-17T14:14:12.925Z,99.20
2019-01-17T14:16:43.530Z,97.30
2019-01-17T14:19:14.126Z,94.40
2019-01-17T14:21:44.895Z,95.40
2019-01-17T14:24:15.928Z,94.10
2019-01-17T14:26:46.494Z,94.40
2019-01-17T14:29:17.846Z,96.10
2019-01-17T14:31:54.345Z,96.70
2019-01-17T14:34:28.458Z,97.20
2019-01-17T14:37:00.930Z,98.00
2019-01-17T14:39:32.720Z,98.30
2019-01-17T14:42:07.325Z,98.40
2019-01-17T14:44:38.765Z,98.50
2019-01-17T14:47:10.106Z,98.20
2019-01-17T14:49:41.377Z,98.80
2019-01-17T14:52:13.331Z,99.00
2019-01-17T14:54:45.367Z,98.50
2019-01-17T14:57:20.626Z,99.10
2019-01-17T14:59:51.687Z,99.90
2019-01-17T15:02:25.653Z,99.90
2019-01-17T15:05:01.577Z,99.90
2019-01-17T15:07:33.869Z,99.90
2019-01-17T15:10:06.304Z,99.90
2019-01-17T15:12:38.201Z,99.90
2019-01-17T15:15:09.319Z,99.90
2019-01-17T15:17:40.171Z,99.90
2019-01-17T15:20:14.040Z,99.90
2019-01-17T15:22:46.860Z,99.90
2019-01-17T15:25:17.516Z,99.90
2019-01-17T15:27:48.200Z,99.90
2019-01-17T15:30:21.255Z,99.90
2019-01-17T15:32:54.469Z,99.60
2019-01-17T15:35:27.979Z,99.90
2019-01-17T15:38:01.078Z,99.90
2019-01-17T15:40:33.188Z,99.90
2019-01-17T15:43:07.925Z,99.90
2019-01-17T15:45:42.341Z,99.90
2019-01-17T15:48:13.942Z,99.90
2019-01-17T15:50:46.215Z,99.90
2019-01-17T15:53:17.142Z,99.50
2019-01-17T15:55:48.096Z,99.60
2019-01-17T15:58:18.933Z,99.00
2019-01-17T16:00:49.492Z,99.20
2019-01-17T16:03:20.066Z,99.70
2019-01-17T16:05:51.125Z,99.90
2019-01-17T16:08:24.685Z,99.90
2019-01-17T16:10:55.971Z,99.90
2019-01-17T16:13:26.913Z,99.90
2019-01-17T16:15:58.038Z,99.90
2019-01-17T16:18:32.046Z,99.90
2019-01-17T16:21:04.482Z,99.90
2019-01-17T16:23:35.209Z,99.90
2019-01-17T16:26:08.091Z,99.90
2019-01-17T16:28:38.631Z,99.90
2019-01-17T16:31:09.391Z,99.90
2019-01-17T16:33:41.279Z,99.90
2019-01-17T16:36:12.893Z,99.90
2019-01-17T16:38:45.833Z,99.90
2019-01-17T16:41:16.906Z,99.90
2019-01-17T16:43:48.965Z,99.90
2019-01-17T16:46:19.802Z,99.90
2019-01-17T16:48:50.856Z,99.90
2019-01-17T16:51:21.644Z,99.90
2019-01-17T16:53:52.853Z,99.90
2019-01-17T16:56:25.061Z,99.90
2019-01-17T16:58:55.745Z,99.90
2019-01-17T17:01:26.632Z,99.90
2019-01-17T17:03:59.487Z,99.90
2019-01-17T17:06:32.442Z,99.90
2019-01-17T17:09:10.561Z,99.90
2019-01-17T17:11:38.895Z,99.90
2019-01-17T17:14:12.577Z,99.90
2019-01-17T17:16:43.542Z,99.90
2019-01-17T17:19:15.487Z,99.90
2019-01-17T17:21:47.062Z,99.90
2019-01-17T17:24:17.837Z,99.90
2019-01-17T17:26:48.560Z,99.90
2019-01-17T17:29:19.300Z,99.90
2019-01-17T17:31:50.140Z,99.90
2019-01-17T17:34:21.118Z,99.90
2019-01-17T17:36:52.872Z,99.90
2019-01-17T17:39:23.569Z,99.90
2019-01-17T17:41:54.411Z,99.90
2019-01-17T17:44:28.016Z,99.90
2019-01-17T17:46:58.771Z,99.90
2019-01-17T17:49:29.487Z,99.90
2019-01-17T17:52:01.588Z,99.90
2019-01-17T17:54:32.588Z,99.90
2019-01-17T17:57:03.245Z,99.90
2019-01-17T17:59:36.374Z,99.90
2019-01-17T18:02:12.093Z,99.90
2019-01-17T18:04:47.086Z,99.90
2019-01-17T18:07:20.713Z,99.90
2019-01-17T18:09:54.744Z,99.90
2019-01-17T18:12:27.437Z,99.90
2019-01-17T18:15:05.130Z,99.90
2019-01-17T18:17:38.231Z,99.90
2019-01-17T18:20:12.211Z,99.90
2019-01-17T18:22:43.324Z,99.90
2019-01-17T18:25:15.030Z,99.90
2019-01-17T18:27:46.640Z,99.90
2019-01-17T18:30:19.672Z,99.90
2019-01-17T18:32:52.358Z,99.90
2019-01-17T18:35:26.297Z,99.90
2019-01-17T18:37:57.559Z,99.90
2019-01-17T18:40:28.237Z,99.90
2019-01-17T18:43:02.216Z,99.90
2019-01-17T18:45:35.772Z,99.90
2019-01-17T18:48:08.343Z,99.90
2019-01-17T18:50:42.594Z,99.90
2019-01-17T18:53:15.888Z,99.90
2019-01-17T18:55:49.310Z,99.90
2019-01-17T18:58:22.323Z,99.90
2019-01-17T19:00:54.889Z,99.90
2019-01-17T19:03:29.415Z,99.90
2019-01-17T19:06:02.348Z,99.90
2019-01-17T19:08:34.323Z,99.90
2019-01-17T19:11:08.919Z,99.90
2019-01-17T19:13:39.643Z,99.90
2019-01-17T19:16:11.597Z,99.90
2019-01-17T19:18:45.369Z,99.90
2019-01-17T19:21:22.909Z,99.90
2019-01-17T19:23:58.199Z,99.90
2019-01-17T19:26:33.568Z,99.90
2019-01-17T19:29:05.809Z,99.90
2019-01-17T19:31:40.434Z,99.90
2019-01-17T19:34:14.758Z,99.90
2019-01-17T19:36:49.228Z,99.90
2019-01-17T19:39:24.868Z,99.90
2019-01-17T19:41:56.919Z,99.90
2019-01-17T19:44:31.792Z,99.90
2019-01-17T19:47:02.943Z,99.90
2019-01-17T19:49:37.500Z,99.90
2019-01-17T19:52:15.450Z,99.90
2019-01-17T19:54:49.830Z,99.90
2019-01-17T19:57:24.627Z,99.90
2019-01-17T19:59:57.683Z,99.90
2019-01-17T20:02:29.130Z,99.90
2019-01-17T20:05:06.651Z,99.90
2019-01-17T20:07:41.973Z,99.90
2019-01-17T20:10:21.764Z,99.90
2019-01-17T20:12:54.620Z,99.90
2019-01-17T20:15:30.769Z,99.90
2019-01-17T20:18:06.112Z,99.90
2019-01-17T20:20:42.624Z,99.90
2019-01-17T20:23:21.240Z,99.90
2019-01-17T20:25:55.806Z,99.90
2019-01-17T20:28:35.765Z,99.90
2019-01-17T20:31:09.292Z,99.90
2019-01-17T20:33:44.521Z,99.90
2019-01-17T20:36:23.196Z,99.90
2019-01-17T20:39:02.137Z,99.90
2019-01-17T20:41:38.863Z,99.90
2019-01-17T20:44:14.041Z,99.90
2019-01-17T20:46:47.031Z,99.90
2019-01-17T20:49:19.232Z,99.90
2019-01-17T20:51:53.214Z,99.90
2019-01-17T20:54:25.575Z,99.90
2019-01-17T20:56:57.660Z,99.90
2019-01-17T20:59:31.259Z,99.90
2019-01-17T21:02:18.822Z,99.90
2019-01-17T21:04:54.253Z,99.90
2019-01-17T21:07:31.702Z,99.90
2019-01-17T21:10:13.227Z,99.90
2019-01-17T21:12:50.496Z,99.90
2019-01-17T21:15:27.308Z,99.90
2019-01-17T21:18:05.892Z,99.90
2019-01-17T21:20:41.548Z,99.90
2019-01-17T21:23:23.584Z,99.90
2019-01-17T21:26:04.643Z,99.90
2019-01-17T21:29:15.440Z,99.90
2019-01-17T21:31:58.298Z,99.90
2019-01-17T21:34:54.360Z,99.90
2019-01-17T21:37:27.448Z,99.90
2019-01-17T21:39:59.142Z,99.90
2019-01-17T21:42:32.947Z,99.90
2019-01-17T21:45:04.171Z,99.90
2019-01-17T21:47:37.303Z,99.90
2019-01-17T21:50:12.789Z,99.90
2019-01-17T21:52:47.250Z,99.90
2019-01-17T21:55:22.441Z,99.90
2019-01-17T21:57:55.872Z,99.90
2019-01-17T22:00:31.769Z,99.90
2019-01-17T22:03:03.001Z,99.90
2019-01-17T22:05:34.004Z,99.90
2019-01-17T22:08:07.994Z,99.90
2019-01-17T22:10:41.289Z,99.90
2019-01-17T22:13:14.280Z,99.90
2019-01-17T22:15:46.979Z,99.90
2019-01-17T22:18:20.861Z,99.90
2019-01-17T22:20:54.569Z,99.90
2019-01-17T22:23:25.670Z,99.90
2019-01-17T22:25:58.092Z,99.90
2019-01-17T22:28:30.511Z,99.90
2019-01-17T22:31:04.563Z,99.90
2019-01-17T22:33:38.350Z,99.90
2019-01-17T22:36:11.233Z,99.90
2019-01-17T22:38:44.966Z,99.90
2019-01-17T22:41:16.296Z,99.90
2019-01-17T22:43:47.846Z,99.90
2019-01-17T22:46:20.456Z,99.90
2019-01-17T22:48:54.907Z,99.90
2019-01-17T22:51:29.406Z,99.90
2019-01-17T22:54:00.867Z,99.90
2019-01-17T22:56:34.586Z,99.90
2019-01-17T22:59:09.518Z,99.90
2019-01-17T23:01:46.191Z,99.90
2019-01-17T23:04:17.720Z,99.90
2019-01-17T23:06:48.733Z,99.90
2019-01-17T23:09:22.372Z,99.90
2019-01-17T23:11:54.192Z,99.90
2019-01-17T23:14:27.571Z,99.90
2019-01-17T23:17:01.262Z,99.90
2019-01-17T23:19:32.492Z,99.90
2019-01-17T23:22:06.417Z,99.90
2019-01-17T23:24:41.049Z,99.90
2019-01-17T23:27:12.069Z,99.90
2019-01-17T23:29:42.923Z,99.90
2019-01-17T23:32:16.010Z,99.90
2019-01-17T23:34:47.423Z,99.90
2019-01-17T23:37:18.690Z,99.90
2019-01-17T23:39:49.580Z,99.90
2019-01-17T23:42:24.794Z,99.90
2019-01-17T23:44:59.395Z,99.90
2019-01-17T23:47:32.588Z,99.90
2019-01-17T23:50:03.774Z,99.90
2019-01-17T23:52:38.057Z,99.90
2019-01-17T23:55:11.745Z,99.90
2019-01-17T23:57:47.232Z,99.90
